This is the latest recevied weather packets stored in our database for station/object LZ0VRC-10. If no packets are shown the sender has not sent any weather packets the latest 1 day(s).
| Time | Temp. | Humidity | Pressure | Rain* | Wind** | Luminosity | Snow |
|---|---|---|---|---|---|---|---|
| 1777791006 | 8.89° C | 77% | 1024.1 hPa | - | - | - | - |
| 1777790106 | 11.67° C | 69% | 1024 hPa | - | - | - | - |
| 1777789206 | 10.56° C | 73% | 1023.9 hPa | - | - | - | - |
| 1777788311 | 10° C | 83% | 1023.9 hPa | - | - | - | - |
| 1777788306 | 10° C | 83% | 1023.9 hPa | - | - | - | - |
| 1777787411 | 9.44° C | 81% | 1023.8 hPa | - | - | - | - |
| 1777787406 | 9.44° C | 81% | 1023.8 hPa | - | - | - | - |
| 1777786511 | 8.33° C | 89% | 1023.8 hPa | - | - | - | - |
| 1777786506 | 8.33° C | 89% | 1023.8 hPa | - | - | - | - |
| 1777785611 | 7.78° C | 94% | 1023.7 hPa | - | - | - | - |
| 1777785606 | 7.78° C | 94% | 1023.7 hPa | - | - | - | - |
| 1777784711 | 6.67° C | 97% | 1023.6 hPa | - | - | - | - |
| 1777784706 | 6.67° C | 97% | 1023.6 hPa | - | - | - | - |
| 1777783811 | 7.22° C | 99% | 1023.6 hPa | - | - | - | - |
| 1777783806 | 7.22° C | 99% | 1023.6 hPa | - | - | - | - |
| 1777782911 | 6.11° C | 99% | 1023.3 hPa | - | - | - | - |
| 1777782906 | 6.11° C | 99% | 1023.3 hPa | - | - | - | - |
| 1777782011 | 6.11° C | 99% | 1023.2 hPa | - | - | - | - |
| 1777782006 | 6.11° C | 99% | 1023.2 hPa | - | - | - | - |
| 1777781111 | 5.56° C | 99% | 1023 hPa | - | - | - | - |
| 1777781106 | 5.56° C | 99% | 1023 hPa | - | - | - | - |
| 1777780211 | 5.56° C | 99% | 1022.8 hPa | - | - | - | - |
| 1777780206 | 5.56° C | 99% | 1022.8 hPa | - | - | - | - |
| 1777779311 | 5° C | 99% | 1022.7 hPa | - | - | - | - |
| 1777779306 | 5° C | 99% | 1022.7 hPa | - | - | - | - |
* Rain since midnight (hover to see other rain measurements)
** Current wind speed in m/s (hover to see current wind gust speed)